sensor_id;sensor_type;location;lat;lon;timestamp;temperature;humidity
47616;DHT22;69146;52.266;7.000;2024-03-23T00:54:19;7.50;99.90
47616;DHT22;69146;52.266;7.000;2024-03-23T00:57:04;7.50;99.90
47616;DHT22;69146;52.266;7.000;2024-03-23T00:59:48;7.50;99.90
47616;DHT22;69146;52.266;7.000;2024-03-23T01:02:32;7.50;99.90
47616;DHT22;69146;52.266;7.000;2024-03-23T01:05:19;7.50;99.90
47616;DHT22;69146;52.266;7.000;2024-03-23T01:08:04;7.50;99.90
47616;DHT22;69146;52.266;7.000;2024-03-23T01:10:55;7.40;99.90
47616;DHT22;69146;52.266;7.000;2024-03-23T01:13:39;7.30;99.90
47616;DHT22;69146;52.266;7.000;2024-03-23T01:16:23;7.30;99.90
47616;DHT22;69146;52.266;7.000;2024-03-23T01:19:08;7.30;99.90
47616;DHT22;69146;52.266;7.000;2024-03-23T01:21:52;7.30;99.90
47616;DHT22;69146;52.266;7.000;2024-03-23T01:24:37;7.30;99.90
47616;DHT22;69146;52.266;7.000;2024-03-23T01:27:23;7.30;99.90
47616;DHT22;69146;52.266;7.000;2024-03-23T01:30:07;7.30;99.90
47616;DHT22;69146;52.266;7.000;2024-03-23T01:32:52;7.20;99.90
47616;DHT22;69146;52.266;7.000;2024-03-23T01:35:36;7.20;99.90
47616;DHT22;69146;52.266;7.000;2024-03-23T01:38:20;7.20;99.90
47616;DHT22;69146;52.266;7.000;2024-03-23T01:41:05;7.20;99.90
47616;DHT22;69146;52.266;7.000;2024-03-23T01:43:50;7.10;99.90
47616;DHT22;69146;52.266;7.000;2024-03-23T01:46:36;7.20;99.90
47616;DHT22;69146;52.266;7.000;2024-03-23T01:49:20;7.10;99.90
47616;DHT22;69146;52.266;7.000;2024-03-23T01:52:05;7.10;99.90
47616;DHT22;69146;52.266;7.000;2024-03-23T01:54:51;7.10;99.90
47616;DHT22;69146;52.266;7.000;2024-03-23T01:57:36;7.10;99.90
47616;DHT22;69146;52.266;7.000;2024-03-23T02:00:22;7.10;99.90
47616;DHT22;69146;52.266;7.000;2024-03-23T02:03:21;7.10;99.90
47616;DHT22;69146;52.266;7.000;2024-03-23T02:06:06;7.00;99.90
47616;DHT22;69146;52.266;7.000;2024-03-23T02:08:52;7.00;99.90
47616;DHT22;69146;52.266;7.000;2024-03-23T02:11:37;7.00;99.90
47616;DHT22;69146;52.266;7.000;2024-03-23T02:14:21;7.00;99.90
47616;DHT22;69146;52.266;7.000;2024-03-23T02:17:08;7.00;99.90
47616;DHT22;69146;52.266;7.000;2024-03-23T02:19:53;7.00;99.90
47616;DHT22;69146;52.266;7.000;2024-03-23T02:22:38;7.00;99.90
47616;DHT22;69146;52.266;7.000;2024-03-23T02:25:24;6.90;99.90
47616;DHT22;69146;52.266;7.000;2024-03-23T02:28:08;6.90;99.90
47616;DHT22;69146;52.266;7.000;2024-03-23T02:30:53;6.90;99.90
47616;DHT22;69146;52.266;7.000;2024-03-23T02:33:37;6.90;99.90
47616;DHT22;69146;52.266;7.000;2024-03-23T02:36:22;6.90;99.90
47616;DHT22;69146;52.266;7.000;2024-03-23T02:39:07;6.90;99.90
47616;DHT22;69146;52.266;7.000;2024-03-23T02:41:52;6.90;99.90
47616;DHT22;69146;52.266;7.000;2024-03-23T02:44:37;6.80;99.90
47616;DHT22;69146;52.266;7.000;2024-03-23T02:47:21;6.80;99.90
47616;DHT22;69146;52.266;7.000;2024-03-23T02:50:06;6.80;99.90
47616;DHT22;69146;52.266;7.000;2024-03-23T02:52:51;6.80;99.90
47616;DHT22;69146;52.266;7.000;2024-03-23T02:55:35;6.70;99.90
47616;DHT22;69146;52.266;7.000;2024-03-23T02:58:21;6.70;99.90
47616;DHT22;69146;52.266;7.000;2024-03-23T03:01:06;6.70;99.90
47616;DHT22;69146;52.266;7.000;2024-03-23T03:03:50;6.70;99.90
47616;DHT22;69146;52.266;7.000;2024-03-23T03:06:34;6.70;99.90
47616;DHT22;69146;52.266;7.000;2024-03-23T03:09:19;6.70;99.90
47616;DHT22;69146;52.266;7.000;2024-03-23T03:12:03;6.70;99.90
47616;DHT22;69146;52.266;7.000;2024-03-23T03:14:49;6.60;99.90
47616;DHT22;69146;52.266;7.000;2024-03-23T03:17:33;6.60;99.90
47616;DHT22;69146;52.266;7.000;2024-03-23T03:20:17;6.50;99.90
47616;DHT22;69146;52.266;7.000;2024-03-23T03:23:02;6.50;99.90
47616;DHT22;69146;52.266;7.000;2024-03-23T03:25:46;6.40;99.90
47616;DHT22;69146;52.266;7.000;2024-03-23T03:28:31;6.30;99.90
47616;DHT22;69146;52.266;7.000;2024-03-23T03:31:18;6.20;99.90
47616;DHT22;69146;52.266;7.000;2024-03-23T03:34:02;6.20;99.90
47616;DHT22;69146;52.266;7.000;2024-03-23T03:36:46;6.10;99.90
47616;DHT22;69146;52.266;7.000;2024-03-23T03:39:31;6.00;99.90
47616;DHT22;69146;52.266;7.000;2024-03-23T03:42:15;6.00;99.90
47616;DHT22;69146;52.266;7.000;2024-03-23T03:45:00;6.00;99.90
47616;DHT22;69146;52.266;7.000;2024-03-23T03:47:46;5.90;99.90
47616;DHT22;69146;52.266;7.000;2024-03-23T03:50:30;5.90;99.90
47616;DHT22;69146;52.266;7.000;2024-03-23T03:53:15;5.80;99.90
47616;DHT22;69146;52.266;7.000;2024-03-23T03:56:00;5.80;99.90
47616;DHT22;69146;52.266;7.000;2024-03-23T03:58:44;5.80;99.90
47616;DHT22;69146;52.266;7.000;2024-03-23T04:01:29;5.70;99.90
47616;DHT22;69146;52.266;7.000;2024-03-23T04:04:15;5.70;99.90
47616;DHT22;69146;52.266;7.000;2024-03-23T04:07:00;5.60;99.90
47616;DHT22;69146;52.266;7.000;2024-03-23T04:09:44;5.60;99.90
47616;DHT22;69146;52.266;7.000;2024-03-23T04:12:30;5.60;99.90
47616;DHT22;69146;52.266;7.000;2024-03-23T04:15:14;5.60;99.90
47616;DHT22;69146;52.266;7.000;2024-03-23T04:17:59;5.60;99.90
47616;DHT22;69146;52.266;7.000;2024-03-23T04:20:45;5.50;99.90
47616;DHT22;69146;52.266;7.000;2024-03-23T04:23:29;5.50;99.90
47616;DHT22;69146;52.266;7.000;2024-03-23T04:26:14;5.50;99.90
47616;DHT22;69146;52.266;7.000;2024-03-23T04:29:00;5.40;99.90
47616;DHT22;69146;52.266;7.000;2024-03-23T04:31:45;5.40;99.90
47616;DHT22;69146;52.266;7.000;2024-03-23T04:34:30;5.30;99.90
47616;DHT22;69146;52.266;7.000;2024-03-23T04:37:15;5.30;99.90
47616;DHT22;69146;52.266;7.000;2024-03-23T04:40:01;5.40;99.90
47616;DHT22;69146;52.266;7.000;2024-03-23T04:42:46;5.40;99.90
47616;DHT22;69146;52.266;7.000;2024-03-23T04:45:30;5.30;99.90
47616;DHT22;69146;52.266;7.000;2024-03-23T04:48:14;5.30;99.90
47616;DHT22;69146;52.266;7.000;2024-03-23T04:51:00;5.30;99.90
47616;DHT22;69146;52.266;7.000;2024-03-23T04:53:46;5.30;99.90
47616;DHT22;69146;52.266;7.000;2024-03-23T04:56:33;5.30;99.90
47616;DHT22;69146;52.266;7.000;2024-03-23T04:59:17;5.20;99.90
47616;DHT22;69146;52.266;7.000;2024-03-23T05:02:02;5.20;99.90
47616;DHT22;69146;52.266;7.000;2024-03-23T05:04:47;5.20;99.90
47616;DHT22;69146;52.266;7.000;2024-03-23T05:07:31;5.20;99.90
47616;DHT22;69146;52.266;7.000;2024-03-23T05:10:17;5.20;99.90
47616;DHT22;69146;52.266;7.000;2024-03-23T05:13:01;5.10;99.90
47616;DHT22;69146;52.266;7.000;2024-03-23T05:15:50;5.10;99.90
47616;DHT22;69146;52.266;7.000;2024-03-23T05:18:35;5.10;99.90
47616;DHT22;69146;52.266;7.000;2024-03-23T05:21:19;5.10;99.90
47616;DHT22;69146;52.266;7.000;2024-03-23T05:24:04;5.10;99.90
47616;DHT22;69146;52.266;7.000;2024-03-23T05:26:50;5.10;99.90
47616;DHT22;69146;52.266;7.000;2024-03-23T05:29:34;5.10;99.90
47616;DHT22;69146;52.266;7.000;2024-03-23T05:32:19;5.10;99.90
47616;DHT22;69146;52.266;7.000;2024-03-23T05:35:03;5.00;99.90
47616;DHT22;69146;52.266;7.000;2024-03-23T05:37:47;5.00;99.90
47616;DHT22;69146;52.266;7.000;2024-03-23T05:40:32;5.10;99.90
47616;DHT22;69146;52.266;7.000;2024-03-23T05:43:19;5.00;99.90
47616;DHT22;69146;52.266;7.000;2024-03-23T05:46:04;5.00;99.90
47616;DHT22;69146;52.266;7.000;2024-03-23T05:48:50;5.00;99.90
47616;DHT22;69146;52.266;7.000;2024-03-23T05:51:34;5.00;99.90
47616;DHT22;69146;52.266;7.000;2024-03-23T05:54:19;5.00;99.90
47616;DHT22;69146;52.266;7.000;2024-03-23T05:57:03;5.00;99.90
47616;DHT22;69146;52.266;7.000;2024-03-23T05:59:49;4.90;99.90
47616;DHT22;69146;52.266;7.000;2024-03-23T06:02:34;4.90;99.90
47616;DHT22;69146;52.266;7.000;2024-03-23T06:05:18;5.00;99.90
47616;DHT22;69146;52.266;7.000;2024-03-23T06:08:04;5.00;99.90
47616;DHT22;69146;52.266;7.000;2024-03-23T06:10:49;5.00;99.90
47616;DHT22;69146;52.266;7.000;2024-03-23T06:13:34;5.00;99.90
47616;DHT22;69146;52.266;7.000;2024-03-23T06:16:20;5.00;99.90
47616;DHT22;69146;52.266;7.000;2024-03-23T06:19:07;5.00;99.90
47616;DHT22;69146;52.266;7.000;2024-03-23T06:21:52;5.10;99.90
47616;DHT22;69146;52.266;7.000;2024-03-23T06:24:36;5.10;99.90
47616;DHT22;69146;52.266;7.000;2024-03-23T06:27:20;5.10;99.90
47616;DHT22;69146;52.266;7.000;2024-03-23T06:30:05;5.10;99.90
47616;DHT22;69146;52.266;7.000;2024-03-23T06:32:52;5.20;99.90
47616;DHT22;69146;52.266;7.000;2024-03-23T06:35:37;5.20;99.90
47616;DHT22;69146;52.266;7.000;2024-03-23T06:38:21;5.20;99.90
47616;DHT22;69146;52.266;7.000;2024-03-23T06:41:06;5.20;99.90
47616;DHT22;69146;52.266;7.000;2024-03-23T06:43:50;5.30;99.90
47616;DHT22;69146;52.266;7.000;2024-03-23T06:46:35;5.40;99.90
47616;DHT22;69146;52.266;7.000;2024-03-23T06:49:22;5.60;99.90
47616;DHT22;69146;52.266;7.000;2024-03-23T06:52:06;5.70;99.90
47616;DHT22;69146;52.266;7.000;2024-03-23T06:54:51;5.80;99.90
47616;DHT22;69146;52.266;7.000;2024-03-23T06:57:35;5.80;99.90
47616;DHT22;69146;52.266;7.000;2024-03-23T07:00:20;5.90;99.90
47616;DHT22;69146;52.266;7.000;2024-03-23T07:03:05;5.90;99.90
47616;DHT22;69146;52.266;7.000;2024-03-23T07:05:52;6.00;99.90
47616;DHT22;69146;52.266;7.000;2024-03-23T07:08:37;5.90;99.90
47616;DHT22;69146;52.266;7.000;2024-03-23T07:11:21;5.90;99.90
47616;DHT22;69146;52.266;7.000;2024-03-23T07:14:06;5.80;99.90
47616;DHT22;69146;52.266;7.000;2024-03-23T07:16:51;5.80;99.90
47616;DHT22;69146;52.266;7.000;2024-03-23T07:19:37;5.80;99.90
47616;DHT22;69146;52.266;7.000;2024-03-23T07:22:22;5.90;99.90
47616;DHT22;69146;52.266;7.000;2024-03-23T07:25:08;5.90;99.90
47616;DHT22;69146;52.266;7.000;2024-03-23T07:27:53;6.00;99.90
47616;DHT22;69146;52.266;7.000;2024-03-23T07:30:37;6.10;99.90
47616;DHT22;69146;52.266;7.000;2024-03-23T07:33:22;6.30;99.90
47616;DHT22;69146;52.266;7.000;2024-03-23T07:36:06;6.40;99.90
47616;DHT22;69146;52.266;7.000;2024-03-23T07:38:52;6.50;99.90
47616;DHT22;69146;52.266;7.000;2024-03-23T07:41:37;6.60;99.90
47616;DHT22;69146;52.266;7.000;2024-03-23T07:44:22;6.80;99.90
47616;DHT22;69146;52.266;7.000;2024-03-23T07:47:06;6.90;99.90
47616;DHT22;69146;52.266;7.000;2024-03-23T07:49:51;7.00;99.90
47616;DHT22;69146;52.266;7.000;2024-03-23T07:52:36;7.20;99.90
47616;DHT22;69146;52.266;7.000;2024-03-23T07:55:22;7.30;99.90
47616;DHT22;69146;52.266;7.000;2024-03-23T07:58:06;7.40;99.90
47616;DHT22;69146;52.266;7.000;2024-03-23T08:00:51;7.40;99.90
47616;DHT22;69146;52.266;7.000;2024-03-23T08:03:36;7.40;99.90
47616;DHT22;69146;52.266;7.000;2024-03-23T08:06:21;7.50;99.90
47616;DHT22;69146;52.266;7.000;2024-03-23T08:09:06;7.40;99.90
47616;DHT22;69146;52.266;7.000;2024-03-23T08:11:52;7.40;99.90
47616;DHT22;69146;52.266;7.000;2024-03-23T08:14:36;7.30;99.90
47616;DHT22;69146;52.266;7.000;2024-03-23T08:17:21;7.20;99.90
47616;DHT22;69146;52.266;7.000;2024-03-23T08:20:07;7.20;99.90
47616;DHT22;69146;52.266;7.000;2024-03-23T08:22:52;7.10;99.90
47616;DHT22;69146;52.266;7.000;2024-03-23T08:25:36;7.20;99.90
47616;DHT22;69146;52.266;7.000;2024-03-23T08:28:22;7.10;99.90
47616;DHT22;69146;52.266;7.000;2024-03-23T08:31:07;7.10;99.90
47616;DHT22;69146;52.266;7.000;2024-03-23T08:33:52;7.10;99.90
47616;DHT22;69146;52.266;7.000;2024-03-23T08:36:37;7.10;99.90
47616;DHT22;69146;52.266;7.000;2024-03-23T08:39:21;7.40;99.90
47616;DHT22;69146;52.266;7.000;2024-03-23T08:42:06;7.70;99.90
47616;DHT22;69146;52.266;7.000;2024-03-23T08:44:52;7.80;99.90
47616;DHT22;69146;52.266;7.000;2024-03-23T08:47:36;8.00;99.90
47616;DHT22;69146;52.266;7.000;2024-03-23T08:50:21;8.00;99.90
47616;DHT22;69146;52.266;7.000;2024-03-23T08:53:06;8.10;99.90
47616;DHT22;69146;52.266;7.000;2024-03-23T08:55:52;8.00;99.90
47616;DHT22;69146;52.266;7.000;2024-03-23T08:58:37;8.00;99.90
47616;DHT22;69146;52.266;7.000;2024-03-23T09:01:24;8.10;99.90
47616;DHT22;69146;52.266;7.000;2024-03-23T09:04:09;8.20;99.90
47616;DHT22;69146;52.266;7.000;2024-03-23T09:06:58;8.30;99.90
47616;DHT22;69146;52.266;7.000;2024-03-23T09:09:44;8.50;99.90
47616;DHT22;69146;52.266;7.000;2024-03-23T09:12:28;8.50;99.90
47616;DHT22;69146;52.266;7.000;2024-03-23T09:15:13;8.40;99.90
47616;DHT22;69146;52.266;7.000;2024-03-23T09:18:00;8.30;99.90
47616;DHT22;69146;52.266;7.000;2024-03-23T09:20:44;8.20;99.90
47616;DHT22;69146;52.266;7.000;2024-03-23T09:23:29;8.40;99.90
47616;DHT22;69146;52.266;7.000;2024-03-23T09:26:14;8.60;99.90
47616;DHT22;69146;52.266;7.000;2024-03-23T09:28:58;8.80;99.90
47616;DHT22;69146;52.266;7.000;2024-03-23T09:31:42;9.00;99.90
47616;DHT22;69146;52.266;7.000;2024-03-23T09:34:28;9.00;99.90
47616;DHT22;69146;52.266;7.000;2024-03-23T09:37:12;8.90;99.90
47616;DHT22;69146;52.266;7.000;2024-03-23T09:39:57;8.80;99.90
47616;DHT22;69146;52.266;7.000;2024-03-23T09:42:42;8.80;99.90
47616;DHT22;69146;52.266;7.000;2024-03-23T09:45:31;8.80;99.90
47616;DHT22;69146;52.266;7.000;2024-03-23T09:48:18;9.00;99.90
47616;DHT22;69146;52.266;7.000;2024-03-23T09:51:04;9.30;99.90
47616;DHT22;69146;52.266;7.000;2024-03-23T09:53:50;9.60;99.90
47616;DHT22;69146;52.266;7.000;2024-03-23T09:56:34;9.70;99.90
47616;DHT22;69146;52.266;7.000;2024-03-23T09:59:19;9.90;99.90
47616;DHT22;69146;52.266;7.000;2024-03-23T10:02:03;10.10;99.90
47616;DHT22;69146;52.266;7.000;2024-03-23T10:04:48;10.20;99.90
47616;DHT22;69146;52.266;7.000;2024-03-23T10:07:34;10.00;99.90
47616;DHT22;69146;52.266;7.000;2024-03-23T10:10:19;10.00;99.90
47616;DHT22;69146;52.266;7.000;2024-03-23T10:13:03;10.10;99.90
47616;DHT22;69146;52.266;7.000;2024-03-23T10:15:48;10.20;99.90
47616;DHT22;69146;52.266;7.000;2024-03-23T10:18:38;10.10;99.90
47616;DHT22;69146;52.266;7.000;2024-03-23T10:21:24;9.70;99.90
47616;DHT22;69146;52.266;7.000;2024-03-23T10:24:10;9.50;99.90
47616;DHT22;69146;52.266;7.000;2024-03-23T10:26:55;9.40;99.90
47616;DHT22;69146;52.266;7.000;2024-03-23T10:29:40;9.50;99.90
47616;DHT22;69146;52.266;7.000;2024-03-23T10:32:24;9.50;99.90
47616;DHT22;69146;52.266;7.000;2024-03-23T10:35:16;9.70;99.90
47616;DHT22;69146;52.266;7.000;2024-03-23T10:38:02;9.60;99.90
47616;DHT22;69146;52.266;7.000;2024-03-23T10:40:51;9.50;99.90
47616;DHT22;69146;52.266;7.000;2024-03-23T10:43:36;9.40;99.90
47616;DHT22;69146;52.266;7.000;2024-03-23T10:46:20;9.80;99.90
47616;DHT22;69146;52.266;7.000;2024-03-23T10:49:05;10.30;99.90
47616;DHT22;69146;52.266;7.000;2024-03-23T10:51:50;10.40;99.90
47616;DHT22;69146;52.266;7.000;2024-03-23T10:54:34;10.50;99.90
47616;DHT22;69146;52.266;7.000;2024-03-23T10:57:21;10.80;99.90
47616;DHT22;69146;52.266;7.000;2024-03-23T11:00:07;11.20;99.90
47616;DHT22;69146;52.266;7.000;2024-03-23T11:02:52;11.20;99.90
47616;DHT22;69146;52.266;7.000;2024-03-23T11:05:37;11.00;99.90
47616;DHT22;69146;52.266;7.000;2024-03-23T11:08:29;10.90;99.90
47616;DHT22;69146;52.266;7.000;2024-03-23T11:11:14;11.00;99.90
47616;DHT22;69146;52.266;7.000;2024-03-23T11:14:00;11.00;99.90
47616;DHT22;69146;52.266;7.000;2024-03-23T11:17:08;11.00;99.90
47616;DHT22;69146;52.266;7.000;2024-03-23T11:19:53;10.80;99.90
47616;DHT22;69146;52.266;7.000;2024-03-23T11:22:43;9.90;99.90
47616;DHT22;69146;52.266;7.000;2024-03-23T11:25:28;8.80;99.90
47616;DHT22;69146;52.266;7.000;2024-03-23T11:28:13;7.40;99.90
47616;DHT22;69146;52.266;7.000;2024-03-23T11:30:59;6.20;99.90
47616;DHT22;69146;52.266;7.000;2024-03-23T11:33:43;5.70;99.90
47616;DHT22;69146;52.266;7.000;2024-03-23T11:36:27;5.80;99.90
47616;DHT22;69146;52.266;7.000;2024-03-23T11:39:12;6.20;99.90
47616;DHT22;69146;52.266;7.000;2024-03-23T11:41:57;6.60;99.90
47616;DHT22;69146;52.266;7.000;2024-03-23T11:44:42;6.80;99.90
47616;DHT22;69146;52.266;7.000;2024-03-23T11:47:28;6.90;99.90
47616;DHT22;69146;52.266;7.000;2024-03-23T11:50:19;6.90;99.90
47616;DHT22;69146;52.266;7.000;2024-03-23T11:53:07;7.00;99.90
47616;DHT22;69146;52.266;7.000;2024-03-23T11:55:52;7.10;99.90
47616;DHT22;69146;52.266;7.000;2024-03-23T11:58:36;7.20;99.90
47616;DHT22;69146;52.266;7.000;2024-03-23T12:01:21;7.50;99.90
47616;DHT22;69146;52.266;7.000;2024-03-23T12:04:07;7.60;99.90
47616;DHT22;69146;52.266;7.000;2024-03-23T12:06:51;7.80;99.90
47616;DHT22;69146;52.266;7.000;2024-03-23T12:10:02;8.00;99.90
47616;DHT22;69146;52.266;7.000;2024-03-23T12:12:58;8.30;99.90
47616;DHT22;69146;52.266;7.000;2024-03-23T12:15:42;8.30;99.90
47616;DHT22;69146;52.266;7.000;2024-03-23T12:18:26;8.40;99.90
47616;DHT22;69146;52.266;7.000;2024-03-23T12:21:12;8.60;99.90
47616;DHT22;69146;52.266;7.000;2024-03-23T12:23:56;8.70;99.90
47616;DHT22;69146;52.266;7.000;2024-03-23T12:26:41;8.70;99.90
47616;DHT22;69146;52.266;7.000;2024-03-23T12:29:26;8.60;99.90
47616;DHT22;69146;52.266;7.000;2024-03-23T12:32:10;8.70;99.90
47616;DHT22;69146;52.266;7.000;2024-03-23T12:34:54;8.80;99.90
47616;DHT22;69146;52.266;7.000;2024-03-23T12:37:40;9.00;99.90
47616;DHT22;69146;52.266;7.000;2024-03-23T12:40:25;9.20;99.90
47616;DHT22;69146;52.266;7.000;2024-03-23T12:43:11;9.40;99.90
47616;DHT22;69146;52.266;7.000;2024-03-23T12:45:56;9.80;99.90
47616;DHT22;69146;52.266;7.000;2024-03-23T12:48:41;10.20;99.90
47616;DHT22;69146;52.266;7.000;2024-03-23T12:51:28;10.30;99.90
47616;DHT22;69146;52.266;7.000;2024-03-23T12:54:14;10.50;99.90
47616;DHT22;69146;52.266;7.000;2024-03-23T12:56:58;10.40;99.90
47616;DHT22;69146;52.266;7.000;2024-03-23T12:59:43;10.40;99.90
47616;DHT22;69146;52.266;7.000;2024-03-23T13:02:27;10.40;99.90
47616;DHT22;69146;52.266;7.000;2024-03-23T13:05:12;10.00;99.90
47616;DHT22;69146;52.266;7.000;2024-03-23T13:07:56;9.30;99.90
47616;DHT22;69146;52.266;7.000;2024-03-23T13:10:42;7.90;99.90
47616;DHT22;69146;52.266;7.000;2024-03-23T13:13:27;6.70;99.90
47616;DHT22;69146;52.266;7.000;2024-03-23T13:16:11;6.10;99.90
47616;DHT22;69146;52.266;7.000;2024-03-23T13:18:56;6.20;99.90
47616;DHT22;69146;52.266;7.000;2024-03-23T13:21:40;6.80;99.90
47616;DHT22;69146;52.266;7.000;2024-03-23T13:24:25;7.30;99.90
47616;DHT22;69146;52.266;7.000;2024-03-23T13:27:10;7.90;99.90
47616;DHT22;69146;52.266;7.000;2024-03-23T13:29:55;8.50;99.90
47616;DHT22;69146;52.266;7.000;2024-03-23T13:32:40;9.00;99.90
47616;DHT22;69146;52.266;7.000;2024-03-23T13:35:25;9.60;99.90
47616;DHT22;69146;52.266;7.000;2024-03-23T13:38:09;10.20;99.90
47616;DHT22;69146;52.266;7.000;2024-03-23T13:40:55;9.80;99.90
47616;DHT22;69146;52.266;7.000;2024-03-23T13:43:41;9.40;99.90
47616;DHT22;69146;52.266;7.000;2024-03-23T13:46:26;9.80;99.90
47616;DHT22;69146;52.266;7.000;2024-03-23T13:49:11;9.60;99.90
47616;DHT22;69146;52.266;7.000;2024-03-23T13:52:01;9.30;99.90
47616;DHT22;69146;52.266;7.000;2024-03-23T13:54:45;9.00;99.90
47616;DHT22;69146;52.266;7.000;2024-03-23T13:57:30;9.40;99.90
47616;DHT22;69146;52.266;7.000;2024-03-23T14:00:18;10.20;99.90
47616;DHT22;69146;52.266;7.000;2024-03-23T14:03:03;10.00;99.90
47616;DHT22;69146;52.266;7.000;2024-03-23T14:05:47;9.40;99.90
47616;DHT22;69146;52.266;7.000;2024-03-23T14:08:31;9.10;99.90
47616;DHT22;69146;52.266;7.000;2024-03-23T14:11:17;9.00;99.90
47616;DHT22;69146;52.266;7.000;2024-03-23T14:14:02;9.40;99.90
47616;DHT22;69146;52.266;7.000;2024-03-23T14:16:49;10.00;99.90
47616;DHT22;69146;52.266;7.000;2024-03-23T14:19:34;9.80;99.90
47616;DHT22;69146;52.266;7.000;2024-03-23T14:22:18;9.50;99.90
47616;DHT22;69146;52.266;7.000;2024-03-23T14:25:06;9.30;99.90
47616;DHT22;69146;52.266;7.000;2024-03-23T14:27:50;9.20;99.90
47616;DHT22;69146;52.266;7.000;2024-03-23T14:30:35;9.00;99.90
47616;DHT22;69146;52.266;7.000;2024-03-23T14:33:21;9.00;99.90
47616;DHT22;69146;52.266;7.000;2024-03-23T14:36:05;8.80;99.90
47616;DHT22;69146;52.266;7.000;2024-03-23T14:38:50;8.80;99.90
47616;DHT22;69146;52.266;7.000;2024-03-23T14:41:34;8.40;99.90
47616;DHT22;69146;52.266;7.000;2024-03-23T14:44:19;8.20;99.90
47616;DHT22;69146;52.266;7.000;2024-03-23T14:47:03;8.00;99.90
47616;DHT22;69146;52.266;7.000;2024-03-23T14:49:49;8.00;99.90
47616;DHT22;69146;52.266;7.000;2024-03-23T14:52:35;7.90;99.90
47616;DHT22;69146;52.266;7.000;2024-03-23T14:55:19;7.90;99.90
47616;DHT22;69146;52.266;7.000;2024-03-23T14:58:04;8.00;99.90
47616;DHT22;69146;52.266;7.000;2024-03-23T15:00:48;8.10;99.90
47616;DHT22;69146;52.266;7.000;2024-03-23T15:03:32;8.10;99.90
47616;DHT22;69146;52.266;7.000;2024-03-23T15:06:19;8.00;99.90
47616;DHT22;69146;52.266;7.000;2024-03-23T15:09:03;8.10;99.90
47616;DHT22;69146;52.266;7.000;2024-03-23T15:11:51;8.20;99.90
47616;DHT22;69146;52.266;7.000;2024-03-23T15:14:36;8.30;99.90
47616;DHT22;69146;52.266;7.000;2024-03-23T15:17:20;8.40;99.90
47616;DHT22;69146;52.266;7.000;2024-03-23T15:20:05;8.40;99.90
47616;DHT22;69146;52.266;7.000;2024-03-23T15:22:51;8.40;99.90
47616;DHT22;69146;52.266;7.000;2024-03-23T15:25:35;8.50;99.90
47616;DHT22;69146;52.266;7.000;2024-03-23T15:28:20;8.50;99.90
47616;DHT22;69146;52.266;7.000;2024-03-23T15:31:04;8.60;99.90
47616;DHT22;69146;52.266;7.000;2024-03-23T15:33:49;8.60;99.90
47616;DHT22;69146;52.266;7.000;2024-03-23T15:36:33;8.70;99.90
47616;DHT22;69146;52.266;7.000;2024-03-23T15:39:19;8.70;99.90
47616;DHT22;69146;52.266;7.000;2024-03-23T15:42:06;8.80;99.90
47616;DHT22;69146;52.266;7.000;2024-03-23T15:44:51;8.80;99.90
47616;DHT22;69146;52.266;7.000;2024-03-23T15:47:35;8.80;99.90
47616;DHT22;69146;52.266;7.000;2024-03-23T15:50:20;8.70;99.90
47616;DHT22;69146;52.266;7.000;2024-03-23T15:53:04;8.70;99.90
47616;DHT22;69146;52.266;7.000;2024-03-23T15:55:54;8.50;99.90
47616;DHT22;69146;52.266;7.000;2024-03-23T15:58:38;8.30;99.90
47616;DHT22;69146;52.266;7.000;2024-03-23T16:01:23;8.30;99.90
47616;DHT22;69146;52.266;7.000;2024-03-23T16:04:08;8.20;99.90
47616;DHT22;69146;52.266;7.000;2024-03-23T16:06:53;8.10;99.90
47616;DHT22;69146;52.266;7.000;2024-03-23T16:09:38;8.10;99.90
47616;DHT22;69146;52.266;7.000;2024-03-23T16:12:23;8.10;99.90
47616;DHT22;69146;52.266;7.000;2024-03-23T16:15:08;8.00;99.90
47616;DHT22;69146;52.266;7.000;2024-03-23T16:17:53;8.00;99.90
47616;DHT22;69146;52.266;7.000;2024-03-23T16:20:37;7.90;99.90
47616;DHT22;69146;52.266;7.000;2024-03-23T16:23:22;8.00;99.90
47616;DHT22;69146;52.266;7.000;2024-03-23T16:26:06;8.10;99.90
47616;DHT22;69146;52.266;7.000;2024-03-23T16:28:52;8.10;99.90
47616;DHT22;69146;52.266;7.000;2024-03-23T16:31:38;8.00;99.90
47616;DHT22;69146;52.266;7.000;2024-03-23T16:34:22;7.90;99.90
47616;DHT22;69146;52.266;7.000;2024-03-23T16:37:07;7.80;99.90
47616;DHT22;69146;52.266;7.000;2024-03-23T16:39:55;7.80;99.90
47616;DHT22;69146;52.266;7.000;2024-03-23T16:42:39;7.90;99.90
47616;DHT22;69146;52.266;7.000;2024-03-23T16:45:25;8.00;99.90
47616;DHT22;69146;52.266;7.000;2024-03-23T16:48:10;7.80;99.90
47616;DHT22;69146;52.266;7.000;2024-03-23T16:50:56;7.60;99.90
47616;DHT22;69146;52.266;7.000;2024-03-23T16:53:40;7.40;99.90
47616;DHT22;69146;52.266;7.000;2024-03-23T16:56:25;7.20;99.90
47616;DHT22;69146;52.266;7.000;2024-03-23T16:59:10;7.10;99.90
47616;DHT22;69146;52.266;7.000;2024-03-23T17:01:56;7.00;99.90
47616;DHT22;69146;52.266;7.000;2024-03-23T17:04:40;7.10;99.90
47616;DHT22;69146;52.266;7.000;2024-03-23T17:07:25;7.20;99.90
47616;DHT22;69146;52.266;7.000;2024-03-23T17:10:09;7.30;99.90
47616;DHT22;69146;52.266;7.000;2024-03-23T17:12:54;7.30;99.90
47616;DHT22;69146;52.266;7.000;2024-03-23T17:15:42;7.30;99.90
47616;DHT22;69146;52.266;7.000;2024-03-23T17:18:27;7.30;99.90
47616;DHT22;69146;52.266;7.000;2024-03-23T17:21:12;7.40;99.90
47616;DHT22;69146;52.266;7.000;2024-03-23T17:23:57;7.40;99.90
47616;DHT22;69146;52.266;7.000;2024-03-23T17:26:42;7.40;99.90
47616;DHT22;69146;52.266;7.000;2024-03-23T17:29:26;7.30;99.90
47616;DHT22;69146;52.266;7.000;2024-03-23T17:32:10;7.20;99.90
47616;DHT22;69146;52.266;7.000;2024-03-23T17:34:56;7.00;99.90
47616;DHT22;69146;52.266;7.000;2024-03-23T17:37:41;7.00;99.90
47616;DHT22;69146;52.266;7.000;2024-03-23T17:40:26;6.90;99.90
47616;DHT22;69146;52.266;7.000;2024-03-23T17:43:11;6.80;99.90
47616;DHT22;69146;52.266;7.000;2024-03-23T17:45:56;6.70;99.90
47616;DHT22;69146;52.266;7.000;2024-03-23T17:48:41;6.60;99.90
47616;DHT22;69146;52.266;7.000;2024-03-23T17:51:27;6.60;99.90
47616;DHT22;69146;52.266;7.000;2024-03-23T17:54:13;6.60;99.90
47616;DHT22;69146;52.266;7.000;2024-03-23T17:56:58;6.60;99.90
47616;DHT22;69146;52.266;7.000;2024-03-23T17:59:42;6.60;99.90
47616;DHT22;69146;52.266;7.000;2024-03-23T18:02:27;6.50;99.90
47616;DHT22;69146;52.266;7.000;2024-03-23T18:05:11;6.50;99.90
47616;DHT22;69146;52.266;7.000;2024-03-23T18:08:00;6.40;99.90
47616;DHT22;69146;52.266;7.000;2024-03-23T18:10:44;6.40;99.90
47616;DHT22;69146;52.266;7.000;2024-03-23T18:13:29;6.50;99.90
47616;DHT22;69146;52.266;7.000;2024-03-23T18:16:13;6.50;99.90
47616;DHT22;69146;52.266;7.000;2024-03-23T18:18:58;6.50;99.90
47616;DHT22;69146;52.266;7.000;2024-03-23T18:21:42;6.40;99.90
47616;DHT22;69146;52.266;7.000;2024-03-23T18:24:28;6.40;99.90
47616;DHT22;69146;52.266;7.000;2024-03-23T18:27:13;6.40;99.90
47616;DHT22;69146;52.266;7.000;2024-03-23T18:29:58;6.30;99.90
47616;DHT22;69146;52.266;7.000;2024-03-23T18:32:42;6.20;99.90